sensor_id;sensor_type;location;lat;lon;timestamp;pressure;altitude;pressure_sealevel;temperature;humidity
53635;BME280;39542;-34.932;138.594;2023-08-08T00:00:21;102386.40;;;14.15;58.49
53635;BME280;39542;-34.932;138.594;2023-08-08T00:00:55;102390.08;;;14.12;58.69
53635;BME280;39542;-34.932;138.594;2023-08-08T00:01:30;102390.04;;;14.16;58.53
53635;BME280;39542;-34.932;138.594;2023-08-08T00:02:05;102390.24;;;14.17;58.45
53635;BME280;39542;-34.932;138.594;2023-08-08T00:02:39;102386.92;;;14.16;58.50
53635;BME280;39542;-34.932;138.594;2023-08-08T00:03:13;102387.52;;;14.17;58.54
53635;BME280;39542;-34.932;138.594;2023-08-08T00:03:48;102386.33;;;14.17;58.40
53635;BME280;39542;-34.932;138.594;2023-08-08T00:04:22;102386.57;;;14.16;58.59
53635;BME280;39542;-34.932;138.594;2023-08-08T00:04:57;102386.84;;;14.16;58.48
53635;BME280;39542;-34.932;138.594;2023-08-08T00:05:31;102387.02;;;14.17;58.46
53635;BME280;39542;-34.932;138.594;2023-08-08T00:06:05;102385.31;;;14.17;58.62
53635;BME280;39542;-34.932;138.594;2023-08-08T00:06:40;102385.78;;;14.15;58.89
53635;BME280;39542;-34.932;138.594;2023-08-08T00:07:14;102387.82;;;14.18;58.72
53635;BME280;39542;-34.932;138.594;2023-08-08T00:07:49;102386.29;;;14.17;58.73
53635;BME280;39542;-34.932;138.594;2023-08-08T00:08:23;102387.96;;;14.16;58.74
53635;BME280;39542;-34.932;138.594;2023-08-08T00:08:57;102388.06;;;14.16;59.00
53635;BME280;39542;-34.932;138.594;2023-08-08T00:09:32;102388.74;;;14.12;59.06
53635;BME280;39542;-34.932;138.594;2023-08-08T00:10:07;102389.48;;;14.10;58.97
53635;BME280;39542;-34.932;138.594;2023-08-08T00:10:41;102391.05;;;14.12;59.03
53635;BME280;39542;-34.932;138.594;2023-08-08T00:11:15;102390.34;;;14.15;59.01
53635;BME280;39542;-34.932;138.594;2023-08-08T00:11:50;102390.55;;;14.12;59.08
53635;BME280;39542;-34.932;138.594;2023-08-08T00:12:24;102391.20;;;14.09;59.24
53635;BME280;39542;-34.932;138.594;2023-08-08T00:12:58;102390.66;;;14.12;59.15
53635;BME280;39542;-34.932;138.594;2023-08-08T00:13:33;102389.32;;;14.11;59.28
53635;BME280;39542;-34.932;138.594;2023-08-08T00:14:07;102389.37;;;14.12;59.30
53635;BME280;39542;-34.932;138.594;2023-08-08T00:14:42;102391.83;;;14.13;59.21
53635;BME280;39542;-34.932;138.594;2023-08-08T00:15:16;102395.74;;;14.11;59.16
53635;BME280;39542;-34.932;138.594;2023-08-08T00:15:50;102393.86;;;14.13;59.28
53635;BME280;39542;-34.932;138.594;2023-08-08T00:16:25;102394.77;;;14.14;59.32
53635;BME280;39542;-34.932;138.594;2023-08-08T00:16:59;102397.55;;;14.13;59.27
53635;BME280;39542;-34.932;138.594;2023-08-08T00:17:34;102399.61;;;14.14;59.24
53635;BME280;39542;-34.932;138.594;2023-08-08T00:18:08;102396.87;;;14.14;59.06
53635;BME280;39542;-34.932;138.594;2023-08-08T00:18:42;102401.68;;;14.13;59.24
53635;BME280;39542;-34.932;138.594;2023-08-08T00:19:16;102401.47;;;14.12;59.23
53635;BME280;39542;-34.932;138.594;2023-08-08T00:19:51;102398.58;;;14.16;59.25
53635;BME280;39542;-34.932;138.594;2023-08-08T00:20:25;102397.92;;;14.15;59.24
53635;BME280;39542;-34.932;138.594;2023-08-08T00:21:00;102399.59;;;14.12;59.43
53635;BME280;39542;-34.932;138.594;2023-08-08T00:21:34;102395.25;;;14.14;59.42
53635;BME280;39542;-34.932;138.594;2023-08-08T00:22:10;102395.12;;;14.12;59.56
53635;BME280;39542;-34.932;138.594;2023-08-08T00:22:44;102393.88;;;14.15;59.48
53635;BME280;39542;-34.932;138.594;2023-08-08T00:23:18;102393.35;;;14.13;59.50
53635;BME280;39542;-34.932;138.594;2023-08-08T00:23:52;102391.86;;;14.14;59.44
53635;BME280;39542;-34.932;138.594;2023-08-08T00:24:27;102392.11;;;14.13;59.38
53635;BME280;39542;-34.932;138.594;2023-08-08T00:25:01;102396.16;;;14.10;59.55
53635;BME280;39542;-34.932;138.594;2023-08-08T00:25:36;102395.04;;;14.11;59.47
53635;BME280;39542;-34.932;138.594;2023-08-08T00:26:11;102395.03;;;14.16;59.48
53635;BME280;39542;-34.932;138.594;2023-08-08T00:26:45;102393.91;;;14.14;59.38
53635;BME280;39542;-34.932;138.594;2023-08-08T00:27:19;102394.57;;;14.16;59.42
53635;BME280;39542;-34.932;138.594;2023-08-08T00:27:53;102397.17;;;14.16;59.37
53635;BME280;39542;-34.932;138.594;2023-08-08T00:28:28;102396.13;;;14.16;59.38
53635;BME280;39542;-34.932;138.594;2023-08-08T00:29:02;102397.49;;;14.16;59.26
53635;BME280;39542;-34.932;138.594;2023-08-08T00:29:37;102396.43;;;14.19;59.28
53635;BME280;39542;-34.932;138.594;2023-08-08T00:30:12;102394.99;;;14.19;59.23
53635;BME280;39542;-34.932;138.594;2023-08-08T00:30:46;102397.73;;;14.18;59.21
53635;BME280;39542;-34.932;138.594;2023-08-08T00:31:21;102400.44;;;14.17;59.22
53635;BME280;39542;-34.932;138.594;2023-08-08T00:31:55;102397.37;;;14.19;59.19
53635;BME280;39542;-34.932;138.594;2023-08-08T00:32:29;102398.61;;;14.21;59.16
53635;BME280;39542;-34.932;138.594;2023-08-08T00:33:03;102397.47;;;14.22;59.13
53635;BME280;39542;-34.932;138.594;2023-08-08T00:33:37;102398.29;;;14.20;59.13
53635;BME280;39542;-34.932;138.594;2023-08-08T00:34:12;102394.63;;;14.19;59.10
53635;BME280;39542;-34.932;138.594;2023-08-08T00:34:46;102394.47;;;14.20;59.12
53635;BME280;39542;-34.932;138.594;2023-08-08T00:35:20;102392.08;;;14.19;59.22
53635;BME280;39542;-34.932;138.594;2023-08-08T00:35:54;102393.14;;;14.21;59.17
53635;BME280;39542;-34.932;138.594;2023-08-08T00:36:29;102390.72;;;14.22;59.08
53635;BME280;39542;-34.932;138.594;2023-08-08T00:37:03;102391.98;;;14.22;59.11
53635;BME280;39542;-34.932;138.594;2023-08-08T00:37:38;102391.73;;;14.22;59.15
53635;BME280;39542;-34.932;138.594;2023-08-08T00:38:12;102392.68;;;14.21;59.19
53635;BME280;39542;-34.932;138.594;2023-08-08T00:38:46;102393.23;;;14.23;59.20
53635;BME280;39542;-34.932;138.594;2023-08-08T00:39:20;102390.58;;;14.24;59.12
53635;BME280;39542;-34.932;138.594;2023-08-08T00:39:54;102391.74;;;14.21;59.26
53635;BME280;39542;-34.932;138.594;2023-08-08T00:40:28;102390.13;;;14.23;59.32
53635;BME280;39542;-34.932;138.594;2023-08-08T00:41:03;102388.81;;;14.23;59.32
53635;BME280;39542;-34.932;138.594;2023-08-08T00:41:37;102389.54;;;14.22;59.28
53635;BME280;39542;-34.932;138.594;2023-08-08T00:42:12;102388.10;;;14.22;59.30
53635;BME280;39542;-34.932;138.594;2023-08-08T00:42:46;102388.92;;;14.23;59.31
53635;BME280;39542;-34.932;138.594;2023-08-08T00:43:21;102388.74;;;14.24;59.17
53635;BME280;39542;-34.932;138.594;2023-08-08T00:43:55;102387.49;;;14.25;59.34
53635;BME280;39542;-34.932;138.594;2023-08-08T00:44:30;102383.31;;;14.24;59.33
53635;BME280;39542;-34.932;138.594;2023-08-08T00:45:04;102383.30;;;14.27;59.30
53635;BME280;39542;-34.932;138.594;2023-08-08T00:45:39;102382.61;;;14.25;59.29
53635;BME280;39542;-34.932;138.594;2023-08-08T00:46:16;102383.07;;;14.26;59.33
53635;BME280;39542;-34.932;138.594;2023-08-08T00:46:51;102381.48;;;14.24;59.33
53635;BME280;39542;-34.932;138.594;2023-08-08T00:47:26;102381.14;;;14.25;59.30
53635;BME280;39542;-34.932;138.594;2023-08-08T00:48:00;102382.09;;;14.27;59.34
53635;BME280;39542;-34.932;138.594;2023-08-08T00:48:34;102379.85;;;14.23;59.37
53635;BME280;39542;-34.932;138.594;2023-08-08T00:49:09;102376.12;;;14.24;59.39
53635;BME280;39542;-34.932;138.594;2023-08-08T00:49:44;102379.73;;;14.26;59.37
53635;BME280;39542;-34.932;138.594;2023-08-08T00:50:19;102375.39;;;14.27;59.38
53635;BME280;39542;-34.932;138.594;2023-08-08T00:50:54;102376.52;;;14.28;59.38
53635;BME280;39542;-34.932;138.594;2023-08-08T00:51:29;102375.34;;;14.29;59.42
53635;BME280;39542;-34.932;138.594;2023-08-08T00:52:03;102374.61;;;14.30;59.39
53635;BME280;39542;-34.932;138.594;2023-08-08T00:52:39;102374.32;;;14.30;59.39
53635;BME280;39542;-34.932;138.594;2023-08-08T00:53:14;102373.24;;;14.29;59.39
53635;BME280;39542;-34.932;138.594;2023-08-08T00:53:49;102375.95;;;14.29;59.43
53635;BME280;39542;-34.932;138.594;2023-08-08T00:54:24;102377.70;;;14.30;59.44
53635;BME280;39542;-34.932;138.594;2023-08-08T00:54:58;102374.42;;;14.30;59.47
53635;BME280;39542;-34.932;138.594;2023-08-08T00:55:33;102374.23;;;14.28;59.50
53635;BME280;39542;-34.932;138.594;2023-08-08T00:56:07;102373.17;;;14.28;59.57
53635;BME280;39542;-34.932;138.594;2023-08-08T00:56:42;102377.33;;;14.27;59.57
53635;BME280;39542;-34.932;138.594;2023-08-08T00:57:17;102374.19;;;14.28;59.58
53635;BME280;39542;-34.932;138.594;2023-08-08T00:57:52;102374.89;;;14.27;59.51
53635;BME280;39542;-34.932;138.594;2023-08-08T00:58:27;102375.26;;;14.30;59.45
53635;BME280;39542;-34.932;138.594;2023-08-08T00:59:01;102372.89;;;14.27;59.52
53635;BME280;39542;-34.932;138.594;2023-08-08T00:59:36;102375.01;;;14.28;59.44
53635;BME280;39542;-34.932;138.594;2023-08-08T01:00:10;102376.37;;;14.27;59.42
53635;BME280;39542;-34.932;138.594;2023-08-08T01:00:45;102376.16;;;14.27;59.38
53635;BME280;39542;-34.932;138.594;2023-08-08T01:01:19;102375.17;;;14.26;59.43
53635;BME280;39542;-34.932;138.594;2023-08-08T01:01:54;102376.87;;;14.30;59.26
53635;BME280;39542;-34.932;138.594;2023-08-08T01:02:28;102374.78;;;14.29;59.35
53635;BME280;39542;-34.932;138.594;2023-08-08T01:03:03;102373.68;;;14.30;59.34
53635;BME280;39542;-34.932;138.594;2023-08-08T01:03:37;102371.85;;;14.30;59.33
53635;BME280;39542;-34.932;138.594;2023-08-08T01:04:12;102371.34;;;14.31;59.34
53635;BME280;39542;-34.932;138.594;2023-08-08T01:04:46;102372.52;;;14.30;59.28
53635;BME280;39542;-34.932;138.594;2023-08-08T01:05:21;102370.98;;;14.31;59.36
53635;BME280;39542;-34.932;138.594;2023-08-08T01:06:02;102370.20;;;14.32;59.34
53635;BME280;39542;-34.932;138.594;2023-08-08T01:06:41;102365.62;;;14.32;59.31
53635;BME280;39542;-34.932;138.594;2023-08-08T01:07:23;102366.71;;;14.32;59.28
53635;BME280;39542;-34.932;138.594;2023-08-08T01:08:06;102361.55;;;14.30;59.31
53635;BME280;39542;-34.932;138.594;2023-08-08T01:08:48;102363.46;;;14.32;59.24
53635;BME280;39542;-34.932;138.594;2023-08-08T01:09:30;102363.25;;;14.34;59.22
53635;BME280;39542;-34.932;138.594;2023-08-08T01:10:09;102361.59;;;14.30;59.29
53635;BME280;39542;-34.932;138.594;2023-08-08T01:10:44;102360.50;;;14.29;59.22
53635;BME280;39542;-34.932;138.594;2023-08-08T01:11:18;102360.12;;;14.29;59.23
53635;BME280;39542;-34.932;138.594;2023-08-08T01:11:54;102360.19;;;14.30;59.21
53635;BME280;39542;-34.932;138.594;2023-08-08T01:12:30;102360.30;;;14.33;59.17
53635;BME280;39542;-34.932;138.594;2023-08-08T01:13:08;102359.64;;;14.32;59.16
53635;BME280;39542;-34.932;138.594;2023-08-08T01:13:44;102362.28;;;14.35;59.10
53635;BME280;39542;-34.932;138.594;2023-08-08T01:14:19;102361.40;;;14.36;59.09
53635;BME280;39542;-34.932;138.594;2023-08-08T01:14:56;102363.42;;;14.35;59.15
53635;BME280;39542;-34.932;138.594;2023-08-08T01:15:31;102363.02;;;14.33;59.18
53635;BME280;39542;-34.932;138.594;2023-08-08T01:16:07;102359.67;;;14.34;59.23
53635;BME280;39542;-34.932;138.594;2023-08-08T01:16:42;102360.17;;;14.36;59.24
53635;BME280;39542;-34.932;138.594;2023-08-08T01:17:17;102358.86;;;14.37;59.13
53635;BME280;39542;-34.932;138.594;2023-08-08T01:17:53;102359.34;;;14.33;59.30
53635;BME280;39542;-34.932;138.594;2023-08-08T01:18:28;102359.08;;;14.34;59.31
53635;BME280;39542;-34.932;138.594;2023-08-08T01:19:03;102357.84;;;14.36;59.30
53635;BME280;39542;-34.932;138.594;2023-08-08T01:19:41;102353.96;;;14.37;59.27
53635;BME280;39542;-34.932;138.594;2023-08-08T01:20:16;102355.13;;;14.33;59.29
53635;BME280;39542;-34.932;138.594;2023-08-08T01:20:52;102354.49;;;14.34;59.34
53635;BME280;39542;-34.932;138.594;2023-08-08T01:21:28;102353.99;;;14.35;59.39
53635;BME280;39542;-34.932;138.594;2023-08-08T01:22:05;102356.97;;;14.32;59.43
53635;BME280;39542;-34.932;138.594;2023-08-08T01:22:45;102352.19;;;14.34;59.47
53635;BME280;39542;-34.932;138.594;2023-08-08T01:23:30;102346.83;;;14.32;59.48
53635;BME280;39542;-34.932;138.594;2023-08-08T01:24:14;102349.64;;;14.34;59.44
53635;BME280;39542;-34.932;138.594;2023-08-08T01:24:49;102346.90;;;14.36;59.46
53635;BME280;39542;-34.932;138.594;2023-08-08T01:25:24;102351.62;;;14.35;59.44
53635;BME280;39542;-34.932;138.594;2023-08-08T01:25:59;102347.22;;;14.35;59.41
53635;BME280;39542;-34.932;138.594;2023-08-08T01:26:34;102350.86;;;14.39;59.38
53635;BME280;39542;-34.932;138.594;2023-08-08T01:27:09;102349.22;;;14.37;59.42
53635;BME280;39542;-34.932;138.594;2023-08-08T01:27:45;102349.87;;;14.35;59.37
53635;BME280;39542;-34.932;138.594;2023-08-08T01:28:23;102349.21;;;14.36;59.36
53635;BME280;39542;-34.932;138.594;2023-08-08T01:28:57;102347.24;;;14.36;59.30
53635;BME280;39542;-34.932;138.594;2023-08-08T01:29:31;102346.88;;;14.37;59.35
53635;BME280;39542;-34.932;138.594;2023-08-08T01:30:07;102345.28;;;14.36;59.39
53635;BME280;39542;-34.932;138.594;2023-08-08T01:30:41;102342.90;;;14.35;59.43
53635;BME280;39542;-34.932;138.594;2023-08-08T01:31:17;102341.85;;;14.38;59.38
53635;BME280;39542;-34.932;138.594;2023-08-08T01:31:52;102339.84;;;14.36;59.46
53635;BME280;39542;-34.932;138.594;2023-08-08T01:32:26;102337.45;;;14.36;59.40
53635;BME280;39542;-34.932;138.594;2023-08-08T01:33:01;102334.96;;;14.35;59.42
53635;BME280;39542;-34.932;138.594;2023-08-08T01:33:35;102337.28;;;14.36;59.47
53635;BME280;39542;-34.932;138.594;2023-08-08T01:34:10;102335.89;;;14.37;59.51
53635;BME280;39542;-34.932;138.594;2023-08-08T01:34:45;102336.53;;;14.35;59.59
53635;BME280;39542;-34.932;138.594;2023-08-08T01:35:20;102332.64;;;14.37;59.56
53635;BME280;39542;-34.932;138.594;2023-08-08T01:35:58;102332.99;;;14.38;59.64
53635;BME280;39542;-34.932;138.594;2023-08-08T01:36:38;102333.66;;;14.36;59.59
53635;BME280;39542;-34.932;138.594;2023-08-08T01:37:17;102333.04;;;14.36;59.52
53635;BME280;39542;-34.932;138.594;2023-08-08T01:37:56;102330.76;;;14.35;59.51
53635;BME280;39542;-34.932;138.594;2023-08-08T01:38:36;102326.96;;;14.37;59.48
53635;BME280;39542;-34.932;138.594;2023-08-08T01:39:16;102329.54;;;14.38;59.44
53635;BME280;39542;-34.932;138.594;2023-08-08T01:39:52;102331.71;;;14.37;59.39
53635;BME280;39542;-34.932;138.594;2023-08-08T01:40:28;102330.46;;;14.35;59.35
53635;BME280;39542;-34.932;138.594;2023-08-08T01:41:04;102331.18;;;14.34;59.33
53635;BME280;39542;-34.932;138.594;2023-08-08T01:41:40;102329.55;;;14.36;59.31
53635;BME280;39542;-34.932;138.594;2023-08-08T01:42:16;102329.17;;;14.36;59.35
53635;BME280;39542;-34.932;138.594;2023-08-08T01:42:52;102327.63;;;14.37;59.33
53635;BME280;39542;-34.932;138.594;2023-08-08T01:43:28;102327.52;;;14.37;59.41
53635;BME280;39542;-34.932;138.594;2023-08-08T01:44:03;102331.25;;;14.39;59.39
53635;BME280;39542;-34.932;138.594;2023-08-08T01:44:38;102330.81;;;14.38;59.37
53635;BME280;39542;-34.932;138.594;2023-08-08T01:45:13;102329.77;;;14.39;59.33
53635;BME280;39542;-34.932;138.594;2023-08-08T01:45:49;102329.54;;;14.39;59.31
53635;BME280;39542;-34.932;138.594;2023-08-08T01:46:25;102328.39;;;14.37;59.34
53635;BME280;39542;-34.932;138.594;2023-08-08T01:47:00;102328.99;;;14.41;59.20
53635;BME280;39542;-34.932;138.594;2023-08-08T01:47:35;102329.29;;;14.39;59.26
53635;BME280;39542;-34.932;138.594;2023-08-08T01:48:10;102327.73;;;14.41;59.28
53635;BME280;39542;-34.932;138.594;2023-08-08T01:48:47;102324.83;;;14.41;59.15
53635;BME280;39542;-34.932;138.594;2023-08-08T01:49:22;102324.98;;;14.43;59.07
53635;BME280;39542;-34.932;138.594;2023-08-08T01:49:56;102322.40;;;14.40;59.13
53635;BME280;39542;-34.932;138.594;2023-08-08T01:50:30;102324.51;;;14.42;59.06
53635;BME280;39542;-34.932;138.594;2023-08-08T01:51:05;102322.28;;;14.41;59.08
53635;BME280;39542;-34.932;138.594;2023-08-08T01:51:39;102321.65;;;14.41;59.13
53635;BME280;39542;-34.932;138.594;2023-08-08T01:52:13;102321.46;;;14.43;59.07
53635;BME280;39542;-34.932;138.594;2023-08-08T01:52:47;102320.21;;;14.41;59.13
53635;BME280;39542;-34.932;138.594;2023-08-08T01:53:22;102318.32;;;14.43;59.00
53635;BME280;39542;-34.932;138.594;2023-08-08T01:53:56;102317.80;;;14.44;59.02
53635;BME280;39542;-34.932;138.594;2023-08-08T01:54:31;102315.14;;;14.46;58.99
53635;BME280;39542;-34.932;138.594;2023-08-08T01:55:06;102311.99;;;14.44;58.98
53635;BME280;39542;-34.932;138.594;2023-08-08T01:55:41;102316.20;;;14.46;58.87
53635;BME280;39542;-34.932;138.594;2023-08-08T01:56:15;102313.14;;;14.43;58.90
53635;BME280;39542;-34.932;138.594;2023-08-08T01:56:50;102314.75;;;14.44;58.97
53635;BME280;39542;-34.932;138.594;2023-08-08T01:57:24;102314.74;;;14.44;59.04
53635;BME280;39542;-34.932;138.594;2023-08-08T01:57:59;102313.57;;;14.45;58.95
53635;BME280;39542;-34.932;138.594;2023-08-08T01:58:33;102314.27;;;14.44;59.03
53635;BME280;39542;-34.932;138.594;2023-08-08T01:59:07;102312.23;;;14.44;59.00
53635;BME280;39542;-34.932;138.594;2023-08-08T01:59:41;102315.20;;;14.44;58.98
53635;BME280;39542;-34.932;138.594;2023-08-08T02:00:15;102314.28;;;14.44;59.01
53635;BME280;39542;-34.932;138.594;2023-08-08T02:00:50;102310.82;;;14.46;58.99
53635;BME280;39542;-34.932;138.594;2023-08-08T02:01:25;102309.05;;;14.47;59.00
53635;BME280;39542;-34.932;138.594;2023-08-08T02:01:59;102306.15;;;14.47;59.03
53635;BME280;39542;-34.932;138.594;2023-08-08T02:02:34;102307.59;;;14.50;58.96
53635;BME280;39542;-34.932;138.594;2023-08-08T02:03:08;102305.76;;;14.52;58.98
53635;BME280;39542;-34.932;138.594;2023-08-08T02:03:42;102306.14;;;14.49;58.96
53635;BME280;39542;-34.932;138.594;2023-08-08T02:04:16;102299.88;;;14.50;58.89
53635;BME280;39542;-34.932;138.594;2023-08-08T02:04:50;102299.83;;;14.48;58.94
53635;BME280;39542;-34.932;138.594;2023-08-08T02:05:24;102298.64;;;14.46;59.05
53635;BME280;39542;-34.932;138.594;2023-08-08T02:05:59;102298.93;;;14.45;59.07
53635;BME280;39542;-34.932;138.594;2023-08-08T02:06:33;102296.67;;;14.45;59.12
53635;BME280;39542;-34.932;138.594;2023-08-08T02:07:07;102296.52;;;14.46;59.17
53635;BME280;39542;-34.932;138.594;2023-08-08T02:07:42;102297.07;;;14.45;59.27
53635;BME280;39542;-34.932;138.594;2023-08-08T02:08:17;102293.66;;;14.44;59.30
53635;BME280;39542;-34.932;138.594;2023-08-08T02:08:52;102287.97;;;14.44;59.27
53635;BME280;39542;-34.932;138.594;2023-08-08T02:09:26;102289.37;;;14.44;59.33
53635;BME280;39542;-34.932;138.594;2023-08-08T02:10:00;102289.43;;;14.43;59.33
53635;BME280;39542;-34.932;138.594;2023-08-08T02:10:34;102286.94;;;14.44;59.33
53635;BME280;39542;-34.932;138.594;2023-08-08T02:11:08;102287.22;;;14.42;59.42
53635;BME280;39542;-34.932;138.594;2023-08-08T02:11:43;102286.60;;;14.46;59.26
53635;BME280;39542;-34.932;138.594;2023-08-08T02:12:17;102287.03;;;14.44;59.38
53635;BME280;39542;-34.932;138.594;2023-08-08T02:12:51;102284.91;;;14.45;59.41
53635;BME280;39542;-34.932;138.594;2023-08-08T02:13:25;102285.18;;;14.44;59.44
53635;BME280;39542;-34.932;138.594;2023-08-08T02:14:00;102282.59;;;14.46;59.43
53635;BME280;39542;-34.932;138.594;2023-08-08T02:14:34;102281.50;;;14.47;59.47
53635;BME280;39542;-34.932;138.594;2023-08-08T02:15:09;102280.60;;;14.52;59.24
53635;BME280;39542;-34.932;138.594;2023-08-08T02:15:43;102280.88;;;14.49;59.29
53635;BME280;39542;-34.932;138.594;2023-08-08T02:16:17;102280.90;;;14.48;59.31
53635;BME280;39542;-34.932;138.594;2023-08-08T02:16:51;102283.13;;;14.49;59.29
53635;BME280;39542;-34.932;138.594;2023-08-08T02:17:26;102280.84;;;14.48;59.29
53635;BME280;39542;-34.932;138.594;2023-08-08T02:18:01;102278.68;;;14.47;59.38
53635;BME280;39542;-34.932;138.594;2023-08-08T02:18:36;102279.58;;;14.45;59.45
53635;BME280;39542;-34.932;138.594;2023-08-08T02:19:10;102279.12;;;14.44;59.43
53635;BME280;39542;-34.932;138.594;2023-08-08T02:19:44;102280.81;;;14.50;59.18
53635;BME280;39542;-34.932;138.594;2023-08-08T02:20:19;102279.10;;;14.49;59.21
53635;BME280;39542;-34.932;138.594;2023-08-08T02:20:53;102278.68;;;14.48;59.17
53635;BME280;39542;-34.932;138.594;2023-08-08T02:21:27;102278.33;;;14.48;59.21
53635;BME280;39542;-34.932;138.594;2023-08-08T02:22:02;102278.86;;;14.46;59.30
53635;BME280;39542;-34.932;138.594;2023-08-08T02:22:37;102276.68;;;14.46;59.37
53635;BME280;39542;-34.932;138.594;2023-08-08T02:23:11;102278.22;;;14.48;59.33
53635;BME280;39542;-34.932;138.594;2023-08-08T02:23:45;102276.17;;;14.48;59.30
53635;BME280;39542;-34.932;138.594;2023-08-08T02:24:20;102276.74;;;14.49;59.29
53635;BME280;39542;-34.932;138.594;2023-08-08T02:24:54;102275.48;;;14.51;59.22
53635;BME280;39542;-34.932;138.594;2023-08-08T02:25:29;102276.58;;;14.50;59.22
53635;BME280;39542;-34.932;138.594;2023-08-08T02:26:03;102273.10;;;14.49;59.16
53635;BME280;39542;-34.932;138.594;2023-08-08T02:26:37;102272.45;;;14.50;59.18
53635;BME280;39542;-34.932;138.594;2023-08-08T02:27:13;102270.24;;;14.53;59.14
53635;BME280;39542;-34.932;138.594;2023-08-08T02:27:48;102269.72;;;14.50;59.21
53635;BME280;39542;-34.932;138.594;2023-08-08T02:28:22;102269.27;;;14.49;59.19
53635;BME280;39542;-34.932;138.594;2023-08-08T02:28:56;102267.12;;;14.52;59.16
53635;BME280;39542;-34.932;138.594;2023-08-08T02:29:30;102268.62;;;14.52;59.11
53635;BME280;39542;-34.932;138.594;2023-08-08T02:30:06;102268.35;;;14.53;59.17
53635;BME280;39542;-34.932;138.594;2023-08-08T02:30:40;102264.84;;;14.54;59.14
53635;BME280;39542;-34.932;138.594;2023-08-08T02:31:14;102263.71;;;14.50;59.24
53635;BME280;39542;-34.932;138.594;2023-08-08T02:31:48;102264.38;;;14.52;59.20
53635;BME280;39542;-34.932;138.594;2023-08-08T02:32:22;102264.48;;;14.48;59.31
53635;BME280;39542;-34.932;138.594;2023-08-08T02:32:57;102264.77;;;14.50;59.33
53635;BME280;39542;-34.932;138.594;2023-08-08T02:33:31;102263.09;;;14.50;59.26
53635;BME280;39542;-34.932;138.594;2023-08-08T02:34:05;102261.25;;;14.49;59.35
53635;BME280;39542;-34.932;138.594;2023-08-08T02:34:39;102263.49;;;14.48;59.38
53635;BME280;39542;-34.932;138.594;2023-08-08T02:35:14;102261.97;;;14.49;59.38
53635;BME280;39542;-34.932;138.594;2023-08-08T02:35:48;102261.48;;;14.50;59.41
53635;BME280;39542;-34.932;138.594;2023-08-08T02:36:22;102260.58;;;14.50;59.42
53635;BME280;39542;-34.932;138.594;2023-08-08T02:36:57;102262.42;;;14.51;59.38
53635;BME280;39542;-34.932;138.594;2023-08-08T02:37:31;102257.85;;;14.51;59.38
53635;BME280;39542;-34.932;138.594;2023-08-08T02:38:05;102259.50;;;14.49;59.46
53635;BME280;39542;-34.932;138.594;2023-08-08T02:38:40;102257.55;;;14.50;59.38
53635;BME280;39542;-34.932;138.594;2023-08-08T02:39:15;102254.30;;;14.48;59.45
53635;BME280;39542;-34.932;138.594;2023-08-08T02:39:49;102257.59;;;14.53;59.35
53635;BME280;39542;-34.932;138.594;2023-08-08T02:40:23;102254.85;;;14.52;59.38
53635;BME280;39542;-34.932;138.594;2023-08-08T02:40:58;102256.85;;;14.54;59.31
53635;BME280;39542;-34.932;138.594;2023-08-08T02:41:32;102253.59;;;14.52;59.43
53635;BME280;39542;-34.932;138.594;2023-08-08T02:42:07;102252.01;;;14.53;59.33
53635;BME280;39542;-34.932;138.594;2023-08-08T02:42:42;102252.33;;;14.50;59.33
53635;BME280;39542;-34.932;138.594;2023-08-08T02:43:16;102249.95;;;14.54;59.32
53635;BME280;39542;-34.932;138.594;2023-08-08T02:43:50;102250.03;;;14.53;59.31
53635;BME280;39542;-34.932;138.594;2023-08-08T02:44:25;102248.83;;;14.52;59.35
53635;BME280;39542;-34.932;138.594;2023-08-08T02:44:59;102248.15;;;14.50;59.42
53635;BME280;39542;-34.932;138.594;2023-08-08T02:45:33;102244.97;;;14.53;59.40
53635;BME280;39542;-34.932;138.594;2023-08-08T02:46:08;102241.71;;;14.50;59.44
53635;BME280;39542;-34.932;138.594;2023-08-08T02:46:42;102240.31;;;14.52;59.43
53635;BME280;39542;-34.932;138.594;2023-08-08T02:47:16;102237.49;;;14.52;59.46
53635;BME280;39542;-34.932;138.594;2023-08-08T02:47:51;102238.57;;;14.51;59.48
53635;BME280;39542;-34.932;138.594;2023-08-08T02:48:25;102236.75;;;14.51;59.44
53635;BME280;39542;-34.932;138.594;2023-08-08T02:49:00;102235.35;;;14.52;59.54
53635;BME280;39542;-34.932;138.594;2023-08-08T02:49:35;102234.04;;;14.51;59.50
53635;BME280;39542;-34.932;138.594;2023-08-08T02:50:10;102228.89;;;14.51;59.47
53635;BME280;39542;-34.932;138.594;2023-08-08T02:50:44;102232.19;;;14.52;59.46
53635;BME280;39542;-34.932;138.594;2023-08-08T02:51:18;102228.95;;;14.49;59.52
53635;BME280;39542;-34.932;138.594;2023-08-08T02:51:52;102228.61;;;14.50;59.52
53635;BME280;39542;-34.932;138.594;2023-08-08T02:52:27;102226.84;;;14.51;59.51
53635;BME280;39542;-34.932;138.594;2023-08-08T02:53:01;102229.28;;;14.54;59.49
53635;BME280;39542;-34.932;138.594;2023-08-08T02:53:36;102228.19;;;14.51;59.56
53635;BME280;39542;-34.932;138.594;2023-08-08T02:54:10;102225.62;;;14.49;59.61
53635;BME280;39542;-34.932;138.594;2023-08-08T02:54:44;102224.30;;;14.52;59.52
53635;BME280;39542;-34.932;138.594;2023-08-08T02:55:19;102222.64;;;14.53;59.44
53635;BME280;39542;-34.932;138.594;2023-08-08T02:55:53;102224.87;;;14.56;59.42